Time;durP1;ratioP1;P1;durP2;ratioP2;P2;SDS_P1;SDS_P2;PMS_P1;PMS_P2;Temp;Humidity;BMP_temperature;BMP_pressure;BME280_temperature;BME280_humidity;BME280_pressure;Samples;Min_cycle;Max_cycle;Signal;HPM_P1;HPM_P2
2022/01/16 00:00:40;;;;;;;4.13;2.93;;;;;;;-4.67;73.44;100882.84;4995057;28;20034;-68
2022/01/16 00:05:52;;;;;;;3.13;2.47;;;;;;;-4.67;73.59;100867.28;4995137;28;20046;-66
2022/01/16 00:08:17;;;;;;;5.97;3.03;;;;;;;-4.59;73.38;100879.97;5010252;28;20084;-67
2022/01/16 00:10:43;;;;;;;5.10;3.43;;;;;;;-4.73;73.38;100868.38;4995142;28;20041;-66
2022/01/16 00:13:08;;;;;;;8.73;3.93;;;;;;;-4.63;73.88;100888.78;4994873;28;20188;-66
2022/01/16 00:15:34;;;;;;;20.70;4.00;;;;;;;-4.67;74.28;100883.69;4994984;28;20049;-66
2022/01/16 00:18:10;;;;;;;4.13;2.55;;;;;;;-4.68;74.43;100887.22;4994830;28;20061;-66
2022/01/16 00:20:36;;;;;;;2.50;2.05;;;;;;;-4.78;73.71;100875.50;4993665;28;20034;-65
2022/01/16 00:23:05;;;;;;;3.90;2.13;;;;;;;-4.85;74.77;100871.47;4995377;28;20395;-65
2022/01/16 00:25:30;;;;;;;3.42;2.35;;;;;;;-4.85;75.24;100889.66;4996045;28;20092;-67
2022/01/16 00:27:56;;;;;;;4.20;2.30;;;;;;;-4.96;75.43;100888.38;4995989;28;20042;-67
2022/01/16 00:30:21;;;;;;;2.83;2.33;;;;;;;-4.91;74.66;100894.28;4994558;28;20099;-67
2022/01/16 00:32:47;;;;;;;5.23;2.77;;;;;;;-4.93;75.19;100886.50;4994578;28;20034;-66
2022/01/16 00:35:14;;;;;;;3.07;2.10;;;;;;;-4.93;74.94;100870.94;4995704;28;20034;-66
2022/01/16 00:37:40;;;;;;;3.60;2.40;;;;;;;-4.95;75.66;100874.50;4998893;28;20088;-66
2022/01/16 00:40:08;;;;;;;4.88;2.38;;;;;;;-4.95;75.82;100866.69;4998802;28;20076;-66
2022/01/16 00:42:33;;;;;;;2.30;2.00;;;;;;;-5.00;75.36;100869.50;4995153;28;20088;-66
2022/01/16 00:44:59;;;;;;;2.87;2.60;;;;;;;-5.11;76.03;100861.28;4994348;28;20034;-67
2022/01/16 00:47:24;;;;;;;3.27;2.70;;;;;;;-5.04;76.20;100873.97;4994545;28;20057;-65
2022/01/16 00:49:50;;;;;;;2.40;2.20;;;;;;;-5.18;76.84;100844.28;4993299;28;20034;-66
2022/01/16 00:52:15;;;;;;;4.03;2.50;;;;;;;-5.12;77.75;100862.19;4991964;28;20045;-65
2022/01/16 00:54:41;;;;;;;3.40;2.47;;;;;;;-5.15;77.44;100864.91;4995952;28;20042;-65
2022/01/16 00:57:07;;;;;;;3.83;2.77;;;;;;;-5.20;77.47;100859.06;4995589;28;20544;-69
2022/01/16 00:59:32;;;;;;;4.33;2.97;;;;;;;-5.19;77.26;100864.19;4996877;28;20037;-65
2022/01/16 01:02:00;;;;;;;3.17;2.77;;;;;;;-5.32;78.05;100848.25;4997215;28;20066;-66
2022/01/16 01:04:28;;;;;;;6.32;2.55;;;;;;;-5.24;78.08;100854.88;4996376;28;20042;-68
2022/01/16 01:06:56;;;;;;;3.10;2.80;;;;;;;-5.23;77.49;100851.38;4993915;28;20046;-66
2022/01/16 01:09:21;;;;;;;2.72;2.30;;;;;;;-5.19;77.08;100852.97;4994031;28;20042;-65
2022/01/16 01:11:49;;;;;;;4.20;2.80;;;;;;;-5.08;77.33;100875.00;5009061;28;20045;-66
2022/01/16 01:17:22;;;;;;;4.65;2.42;;;;;;;-5.05;77.76;100848.06;4990116;28;20058;-66
2022/01/16 01:19:48;;;;;;;4.50;2.63;;;;;;;-5.15;77.21;100847.59;4994321;28;20038;-66
2022/01/16 01:22:13;;;;;;;2.93;2.73;;;;;;;-5.06;77.41;100859.34;4994023;28;20382;-65
2022/01/16 01:24:39;;;;;;;4.23;2.77;;;;;;;-5.08;76.87;100856.81;4993569;28;20050;-66
2022/01/16 01:27:17;;;;;;;5.23;3.13;;;;;;;-5.31;76.97;100823.97;4993776;28;20089;-65
2022/01/16 01:29:50;;;;;;;3.70;2.40;;;;;;;-5.07;76.90;100858.50;4995505;28;20038;-66
2022/01/16 01:32:16;;;;;;;3.53;1.95;;;;;;;-5.03;77.41;100843.66;4995317;28;20089;-66
2022/01/16 01:34:41;;;;;;;5.37;2.70;;;;;;;-5.05;77.17;100835.06;4993551;28;20121;-65
2022/01/16 01:37:07;;;;;;;5.00;2.40;;;;;;;-4.99;77.21;100851.25;4992277;28;20042;-65
2022/01/16 01:39:32;;;;;;;5.07;2.40;;;;;;;-5.01;77.37;100852.22;4993292;28;20053;-67
2022/01/16 01:42:07;;;;;;;3.23;2.50;;;;;;;-5.07;77.23;100852.47;4993405;28;20041;-70
2022/01/16 01:52:52;;;;;;;5.82;2.72;;;;;;;-5.07;78.12;100868.06;4993071;28;20509;-66
2022/01/16 01:55:18;;;;;;;7.00;3.28;;;;;;;-5.22;78.81;100850.47;4993251;28;20045;-67
2022/01/16 01:57:44;;;;;;;6.88;2.85;;;;;;;-5.24;79.04;100860.06;4992841;28;20042;-66
2022/01/16 02:00:17;;;;;;;3.10;2.30;;;;;;;-5.31;79.45;100844.75;4993117;28;20431;-68
2022/01/16 02:03:01;;;;;;;3.33;2.55;;;;;;;-5.23;79.71;100853.97;4993000;28;20112;-67
2022/01/16 02:05:27;;;;;;;4.13;3.33;;;;;;;-5.31;79.52;100833.50;4992025;28;20049;-65
2022/01/16 02:07:53;;;;;;;4.03;2.30;;;;;;;-5.28;79.14;100833.38;4993243;28;20042;-67
2022/01/16 02:10:18;;;;;;;3.00;2.50;;;;;;;-5.21;79.48;100844.38;4993080;28;20042;-67
2022/01/16 02:12:46;;;;;;;5.07;3.43;;;;;;;-5.23;79.86;100841.84;4992977;28;20042;-65
2022/01/16 02:29:58;;;;;;;3.15;2.50;;;;;;;-5.21;79.30;100844.38;4994005;28;20137;-64
2022/01/16 02:34:34;;;;;;;5.10;2.67;;;;;;;-5.25;79.60;100842.81;4992516;28;20153;-67
2022/01/16 02:37:06;;;;;;;6.18;2.85;;;;;;;-5.27;80.30;100852.41;4992938;28;20034;-66
2022/01/16 02:39:35;;;;;;;7.75;3.03;;;;;;;-5.47;79.91;100807.31;4992876;28;20057;-66
2022/01/16 02:42:05;;;;;;;4.07;2.50;;;;;;;-5.25;79.96;100848.00;4992739;28;20551;-67
2022/01/16 02:44:35;;;;;;;6.40;2.60;;;;;;;-5.34;80.41;100813.72;4992423;28;20046;-65
2022/01/16 02:47:02;;;;;;;5.40;2.83;;;;;;;-5.33;80.28;100719.34;4992502;28;20505;-66
2022/01/16 02:49:30;;;;;;;4.00;2.42;;;;;;;-5.31;81.15;100693.34;4991399;28;20046;-65
2022/01/16 02:51:59;;;;;;;5.22;2.47;;;;;;;-5.36;80.29;100703.91;4992424;28;20501;-66
2022/01/16 02:54:26;;;;;;;;;;;;;;;-5.24;79.51;100714.69;4993416;28;20189;-67
2022/01/16 02:56:52;;;;;;;5.68;3.30;;;;;;;-5.32;80.98;100692.50;4991258;28;19925;-65
2022/01/16 02:59:18;;;;;;;7.95;3.40;;;;;;;-5.31;80.92;100724.47;4991065;28;20043;-66
2022/01/16 03:01:46;;;;;;;3.67;2.83;;;;;;;-5.28;81.33;100739.09;4992358;28;20060;-67
2022/01/16 03:04:16;;;;;;;4.32;2.70;;;;;;;-5.48;80.74;100711.38;4992591;28;20137;-65
2022/01/16 03:06:42;;;;;;;5.53;2.60;;;;;;;-5.28;81.50;100772.84;4992392;28;20133;-66
2022/01/16 03:09:08;;;;;;;7.10;3.00;;;;;;;-5.25;81.09;100770.13;4995076;28;20045;-66
2022/01/16 03:11:37;;;;;;;3.92;3.15;;;;;;;-5.23;81.06;100763.09;4995235;28;20030;-65
2022/01/16 03:14:05;;;;;;;3.70;3.05;;;;;;;-5.22;81.02;100764.78;4994034;28;20045;-65
2022/01/16 03:16:31;;;;;;;6.65;2.85;;;;;;;-5.26;82.12;100763.22;4997482;28;20034;-66
2022/01/16 03:21:57;;;;;;;5.95;3.20;;;;;;;-5.20;81.69;100716.28;4996326;28;20037;-65
2022/01/16 03:24:29;;;;;;;4.85;2.63;;;;;;;-5.17;81.29;100729.13;4996005;28;20044;-65
2022/01/16 03:27:00;;;;;;;7.53;3.42;;;;;;;-5.06;82.22;100739.91;4996287;28;20042;-63
2022/01/16 03:29:27;;;;;;;4.75;3.20;;;;;;;-5.03;81.57;100724.19;4995996;28;20051;-65
2022/01/16 03:31:54;;;;;;;5.70;3.38;;;;;;;-4.95;81.98;100737.69;4995874;28;20494;-66
2022/01/16 03:34:20;;;;;;;6.40;3.42;;;;;;;-4.89;81.09;100732.25;4995604;28;20046;-65
2022/01/16 03:36:46;;;;;;;5.70;3.60;;;;;;;-4.85;80.98;100736.41;4995469;28;20051;-67
2022/01/16 03:39:12;;;;;;;6.22;3.10;;;;;;;-4.86;81.57;100726.06;4994549;28;20504;-66
2022/01/16 03:41:38;;;;;;;4.93;3.60;;;;;;;-4.78;81.51;100753.41;4995698;28;20038;-65
2022/01/16 03:44:05;;;;;;;5.38;3.17;;;;;;;-4.79;81.07;100750.88;4995683;28;20041;-65
2022/01/16 03:46:37;;;;;;;11.88;3.92;;;;;;;-4.78;81.64;100756.00;4995491;28;20128;-65
2022/01/16 03:49:06;;;;;;;7.68;3.03;;;;;;;-4.88;81.30;100736.53;4995420;28;20058;-65
2022/01/16 03:51:32;;;;;;;8.13;3.08;;;;;;;-4.83;82.04;100747.56;4995227;28;20405;-66
2022/01/16 03:53:58;;;;;;;10.90;3.83;;;;;;;-4.97;81.83;100721.31;4995503;28;20034;-67
2022/01/16 03:56:23;;;;;;;5.27;3.80;;;;;;;-4.77;82.61;100744.69;4995382;28;20552;-66
2022/01/16 03:58:49;;;;;;;3.80;3.40;;;;;;;-4.90;82.71;100709.78;4995458;28;20060;-66
2022/01/16 04:01:15;;;;;;;6.43;2.70;;;;;;;-4.78;82.42;100739.56;4995042;28;20100;-65
2022/01/16 04:03:41;;;;;;;3.90;2.50;;;;;;;-4.81;82.42;100737.09;4995099;28;20062;-65
2022/01/16 04:06:07;;;;;;;8.70;2.83;;;;;;;-4.91;82.99;100705.50;4994977;28;20050;-65
2022/01/16 04:08:55;;;;;;;6.57;3.07;;;;;;;-4.85;82.95;100723.41;4995281;28;20501;-68
2022/01/16 04:11:22;;;;;;;;;;;;;;;-4.81;82.35;100730.16;4987545;28;20533;-66
2022/01/16 04:13:53;;;;;;;7.82;2.55;;;;;;;-4.85;83.51;100723.41;4995074;28;20373;-66
2022/01/16 04:16:20;;;;;;;11.77;2.92;;;;;;;-4.92;82.87;100702.94;4995090;28;20042;-67
2022/01/16 04:18:51;;;;;;;5.03;2.97;;;;;;;-4.97;83.31;100687.56;4994927;28;20067;-69
2022/01/16 04:21:23;;;;;;;9.10;3.72;;;;;;;-4.89;83.55;100695.88;4995208;28;20121;-65
2022/01/16 04:23:49;;;;;;;5.35;3.13;;;;;;;-4.87;83.54;100694.06;4994793;28;20397;-67
2022/01/16 04:26:16;;;;;;;5.10;2.97;;;;;;;-4.75;83.15;100687.47;4994610;28;20497;-66
2022/01/16 04:29:30;;;;;;;3.67;2.80;;;;;;;-4.97;83.04;100634.78;4993544;28;20035;-66
2022/01/16 04:31:55;;;;;;;8.10;2.58;;;;;;;-4.68;83.65;100665.50;4992761;28;20038;-65
2022/01/16 04:34:21;;;;;;;4.97;2.70;;;;;;;-4.67;83.39;100660.22;4994997;28;20121;-66
2022/01/16 04:36:48;;;;;;;4.40;2.55;;;;;;;-4.58;83.65;100661.59;4996855;28;20133;-67
2022/01/16 04:39:19;;;;;;;9.87;3.20;;;;;;;-4.53;83.22;100658.78;4996615;28;20587;-66
2022/01/16 04:44:30;;;;;;;5.35;3.42;;;;;;;-4.42;83.28;100640.94;4994476;28;20034;-65
2022/01/16 04:46:56;;;;;;;8.33;4.03;;;;;;;-4.34;82.80;100633.59;4994423;28;20030;-67
2022/01/16 04:49:22;;;;;;;8.20;3.97;;;;;;;-4.14;83.23;100637.88;4994313;28;20034;-65
2022/01/16 04:51:47;;;;;;;6.60;3.53;;;;;;;-4.00;82.27;100637.25;4993037;28;20053;-65
2022/01/16 04:54:13;;;;;;;8.17;3.30;;;;;;;-3.86;81.67;100642.63;4996071;28;20041;-66
2022/01/16 04:56:39;;;;;;;7.32;4.13;;;;;;;-4.04;82.01;100592.34;4995456;28;20034;-66
2022/01/16 04:59:05;;;;;;;6.07;3.43;;;;;;;-3.94;82.04;100590.13;4994827;28;20053;-65
2022/01/16 05:01:32;;;;;;;5.10;3.10;;;;;;;-3.61;82.10;100617.09;4993900;28;20399;-68
2022/01/16 05:03:59;;;;;;;4.80;2.80;;;;;;;-3.51;81.49;100607.88;4994118;28;20038;-66
2022/01/16 05:06:25;;;;;;;7.93;4.05;;;;;;;-3.39;81.62;100608.19;4993907;28;20497;-64
2022/01/16 05:08:50;;;;;;;16.03;5.17;;;;;;;-3.33;81.08;100606.13;4994659;28;20042;-67
2022/01/16 05:11:21;;;;;;;8.40;3.37;;;;;;;-3.35;80.63;100604.53;4992417;28;20031;-67
2022/01/16 05:18:57;;;;;;;6.25;3.03;;;;;;;-3.39;80.94;100596.03;4993809;28;20042;-65
2022/01/16 05:21:22;;;;;;;7.00;3.43;;;;;;;-3.38;81.38;100586.44;4993859;28;20058;-67
2022/01/16 05:23:48;;;;;;;7.60;4.27;;;;;;;-3.45;80.80;100581.56;4993894;28;20513;-64
2022/01/16 05:26:24;;;;;;;4.93;3.87;;;;;;;-3.40;81.43;100590.91;4993644;28;20092;-66
2022/01/16 05:28:50;;;;;;;6.30;4.15;;;;;;;-3.50;81.57;100582.69;4993571;28;20632;-65
2022/01/16 05:31:16;;;;;;;7.53;4.13;;;;;;;-3.49;81.45;100582.63;4993497;28;20117;-66
2022/01/16 05:33:42;;;;;;;9.52;4.38;;;;;;;-3.55;82.12;100569.91;4993164;28;20121;-66
2022/01/16 05:36:07;;;;;;;7.83;4.30;;;;;;;-3.59;82.32;100565.78;4993324;28;20117;-67
2022/01/16 05:38:33;;;;;;;7.80;4.30;;;;;;;-3.63;82.71;100561.66;4995235;28;20150;-65
2022/01/16 05:40:58;;;;;;;5.27;4.13;;;;;;;-3.57;82.30;100560.50;4998343;28;20054;-65
2022/01/16 05:43:24;;;;;;;5.10;3.83;;;;;;;-3.52;82.95;100568.91;4993311;28;20042;-66
2022/01/16 05:45:49;;;;;;;8.47;4.77;;;;;;;-3.64;82.35;100544.34;4998363;28;20042;-65
2022/01/16 05:48:15;;;;;;;8.37;3.63;;;;;;;-3.56;83.22;100555.22;4995636;28;20441;-65
2022/01/16 05:50:40;;;;;;;9.37;4.03;;;;;;;-3.56;83.24;100555.22;4992554;28;20164;-67
2022/01/16 05:53:06;;;;;;;6.87;4.67;;;;;;;-3.72;83.28;100504.03;4993654;28;20041;-65
2022/01/16 05:55:36;;;;;;;8.63;4.90;;;;;;;-3.57;83.94;100524.91;4993453;28;20038;-68
2022/01/16 05:58:07;;;;;;;12.52;4.20;;;;;;;-3.54;83.89;100523.91;4993349;28;20118;-64
2022/01/16 06:00:34;;;;;;;9.75;4.53;;;;;;;-3.49;83.23;100516.69;4993079;28;20042;-65
2022/01/16 06:03:04;;;;;;;7.47;4.35;;;;;;;-3.45;83.86;100523.44;4992715;28;20632;-65
2022/01/16 06:05:30;;;;;;;11.50;5.07;;;;;;;-3.57;83.49;100498.88;4993193;28;20051;-67
2022/01/16 06:07:59;;;;;;;6.80;4.77;;;;;;;-3.69;83.52;100468.28;4993025;28;20046;-64
2022/01/16 06:10:25;;;;;;;8.15;4.57;;;;;;;-3.66;83.70;100483.75;4993001;28;20066;-66
2022/01/16 06:12:52;;;;;;;9.63;4.68;;;;;;;-3.45;83.83;100502.63;4992858;28;20049;-66
2022/01/16 06:15:18;;;;;;;8.90;4.80;;;;;;;-3.42;83.41;100497.25;4991572;28;20042;-66
2022/01/16 06:17:44;;;;;;;10.15;4.85;;;;;;;-3.46;83.79;100495.72;5008845;28;20101;-66
2022/01/16 06:20:10;;;;;;;15.77;5.87;;;;;;;-3.44;84.16;100492.13;4993246;28;20030;-67
2022/01/16 06:22:35;;;;;;;10.93;5.63;;;;;;;-3.49;84.25;100478.47;4992891;28;20532;-68
2022/01/16 06:25:01;;;;;;;13.20;5.57;;;;;;;-3.49;84.59;100465.47;4992794;28;20094;-65
2022/01/16 06:27:26;;;;;;;6.90;4.23;;;;;;;-3.50;83.92;100437.75;4992808;28;20121;-68
2022/01/16 06:29:51;;;;;;;9.60;5.47;;;;;;;-3.27;83.85;100461.72;5007864;28;20061;-65
2022/01/16 06:32:17;;;;;;;18.27;6.73;;;;;;;-3.27;83.50;100453.91;4992844;28;20049;-69
2022/01/16 06:34:43;;;;;;;8.53;5.17;;;;;;;-3.25;83.55;100446.84;4992722;28;20046;-70
2022/01/16 06:37:08;;;;;;;12.50;6.73;;;;;;;-3.25;83.46;100449.47;4991673;28;20042;-68
2022/01/16 06:39:59;;;;;;;12.60;5.45;;;;;;;-3.27;84.40;100436.53;4992628;28;20073;-68
2022/01/16 06:42:25;;;;;;;11.10;6.77;;;;;;;-3.21;84.37;100446.59;4991804;28;20046;-73
2022/01/16 06:44:50;;;;;;;9.40;6.23;;;;;;;-3.17;83.22;100429.91;4992673;28;20402;-74
2022/01/16 06:47:16;;;;;;;14.37;6.67;;;;;;;-3.21;83.50;100414.50;4994794;28;20537;-69
2022/01/16 06:49:42;;;;;;;8.27;5.43;;;;;;;-3.10;83.38;100413.94;4996014;28;20096;-68
2022/01/16 06:52:07;;;;;;;6.77;5.40;;;;;;;-3.11;83.20;100407.91;4995041;28;20046;-69
2022/01/16 06:54:33;;;;;;;8.27;5.27;;;;;;;-3.16;83.65;100405.56;5011949;28;20177;-67
2022/01/16 06:56:58;;;;;;;7.67;5.23;;;;;;;-3.08;82.96;100417.31;4996135;28;20038;-67
2022/01/16 06:59:24;;;;;;;8.97;5.57;;;;;;;-3.07;83.18;100406.78;4996615;28;20034;-69
2022/01/16 07:01:50;;;;;;;6.77;5.70;;;;;;;-2.92;82.90;100400.72;4996605;28;20077;-69
2022/01/16 07:04:17;;;;;;;10.25;4.85;;;;;;;-2.91;83.37;100399.78;4996539;28;20050;-68
2022/01/16 07:06:43;;;;;;;10.43;5.00;;;;;;;-2.95;83.09;100371.41;4996447;28;20534;-70
2022/01/16 07:09:08;;;;;;;7.23;3.77;;;;;;;-2.77;83.04;100392.97;4996340;28;20045;-69
2022/01/16 07:11:34;;;;;;;8.23;5.13;;;;;;;-2.82;82.73;100385.44;4996779;28;20038;-72
2022/01/16 07:13:59;;;;;;;5.80;4.20;;;;;;;-2.83;83.09;100387.19;4996650;28;20038;-69
2022/01/16 07:16:25;;;;;;;6.57;4.40;;;;;;;-2.77;82.35;100396.44;4996381;28;20034;-68
2022/01/16 07:18:51;;;;;;;7.77;4.73;;;;;;;-2.73;82.29;100392.72;4996067;28;20092;-67
2022/01/16 07:21:16;;;;;;;7.82;5.55;;;;;;;-2.66;82.14;100383.59;4996052;28;20034;-67
2022/01/16 07:23:44;;;;;;;9.67;6.03;;;;;;;-2.73;82.62;100369.25;4996048;28;20042;-70
2022/01/16 07:26:10;;;;;;;8.05;5.35;;;;;;;-2.70;81.96;100365.63;4995900;28;20047;-67
2022/01/16 07:28:36;;;;;;;7.40;5.50;;;;;;;-2.71;82.17;100366.56;4996060;28;20050;-67
2022/01/16 07:31:01;;;;;;;12.10;7.53;;;;;;;-2.83;81.33;100345.50;4996291;28;20034;-70
2022/01/16 07:33:27;;;;;;;13.40;7.80;;;;;;;-2.77;81.44;100343.47;4995839;28;20073;-71
2022/01/16 07:35:52;;;;;;;16.77;7.50;;;;;;;-2.74;81.75;100356.31;4995845;28;20112;-72
2022/01/16 07:38:18;;;;;;;13.97;7.43;;;;;;;-2.73;81.12;100355.38;4994836;28;20038;-68
2022/01/16 07:40:43;;;;;;;16.37;8.43;;;;;;;-2.85;81.72;100356.94;4995781;28;20078;-70
2022/01/16 07:43:09;;;;;;;19.20;9.27;;;;;;;-2.89;81.77;100344.97;4996023;28;20038;-72
2022/01/16 07:45:37;;;;;;;14.07;8.57;;;;;;;-2.99;81.82;100339.47;4996185;28;20074;-69
2022/01/16 07:48:04;;;;;;;11.00;6.28;;;;;;;-3.02;81.87;100354.44;4996066;28;20042;-70
2022/01/16 07:50:29;;;;;;;20.95;9.57;;;;;;;-3.10;82.73;100347.06;4996155;28;20034;-71
2022/01/16 07:52:55;;;;;;;20.40;8.87;;;;;;;-3.17;82.16;100340.53;4996138;28;20034;-69
2022/01/16 07:55:24;;;;;;;21.03;10.03;;;;;;;-3.21;83.26;100341.59;4994487;28;20430;-66
2022/01/16 07:57:51;;;;;;;;;;;;;;;-3.23;83.00;100335.63;4995955;28;20672;-68
2022/01/16 08:00:17;;;;;;;14.25;7.78;;;;;;;-3.38;82.40;100321.72;4994388;28;19918;-67
2022/01/16 08:02:43;;;;;;;17.77;9.90;;;;;;;-3.39;82.83;100327.00;4995425;28;20085;-66
2022/01/16 08:05:10;;;;;;;15.63;9.95;;;;;;;-3.44;82.87;100322.06;4995873;28;20042;-71
2022/01/16 08:07:36;;;;;;;12.13;7.93;;;;;;;-3.41;82.37;100310.63;5002209;28;20050;-65
2022/01/16 08:10:01;;;;;;;13.40;7.53;;;;;;;-3.38;82.22;100326.91;5004394;28;20045;-66
2022/01/16 08:12:28;;;;;;;15.48;7.78;;;;;;;-3.40;82.75;100317.50;4996543;28;20084;-66
2022/01/16 08:14:54;;;;;;;12.83;8.27;;;;;;;-3.37;82.81;100314.75;4978308;28;20038;-66
2022/01/16 08:17:19;;;;;;;10.25;7.55;;;;;;;-3.40;82.23;100307.94;4995514;28;20053;-66
2022/01/16 08:19:45;;;;;;;14.17;7.97;;;;;;;-3.36;81.51;100308.59;4994456;28;20050;-66
2022/01/16 08:22:10;;;;;;;13.63;8.20;;;;;;;-3.56;81.34;100281.91;4993884;28;20481;-72
2022/01/16 08:24:36;;;;;;;11.90;7.07;;;;;;;-3.34;81.44;100322.38;4979014;28;20400;-70
2022/01/16 08:27:02;;;;;;;14.60;6.93;;;;;;;-3.43;80.98;100318.53;4979470;28;20386;-68
2022/01/16 08:29:28;;;;;;;12.63;7.50;;;;;;;-3.39;81.00;100303.56;4996095;28;20044;-70
2022/01/16 08:31:57;;;;;;;11.63;8.13;;;;;;;-3.36;81.03;100304.22;4995426;28;20038;-66
2022/01/16 08:34:22;;;;;;;16.73;7.75;;;;;;;-3.26;81.31;100294.13;4997933;28;20120;-68
2022/01/16 08:36:48;;;;;;;11.80;6.70;;;;;;;-3.13;80.85;100285.56;4996915;28;20129;-71
2022/01/16 08:39:14;;;;;;;13.97;7.77;;;;;;;-2.99;79.90;100281.31;4994809;28;20453;-66
2022/01/16 08:42:05;;;;;;;11.73;6.28;;;;;;;-2.75;78.72;100284.25;4994492;28;20069;-70
2022/01/16 08:44:32;;;;;;;7.75;5.20;;;;;;;-2.60;78.53;100265.13;4995434;28;20050;-67
2022/01/16 08:46:58;;;;;;;10.35;7.22;;;;;;;-2.48;77.58;100266.16;4994231;28;20096;-65
2022/01/16 08:49:26;;;;;;;6.53;5.17;;;;;;;-2.44;77.25;100254.59;4993256;28;20034;-67
2022/01/16 08:51:52;;;;;;;8.85;5.65;;;;;;;-2.42;76.88;100271.00;4995705;28;20852;-67
2022/01/16 08:54:18;;;;;;;7.93;4.57;;;;;;;-2.43;77.35;100244.09;4994527;28;20117;-67
2022/01/16 08:56:43;;;;;;;6.13;4.70;;;;;;;-2.45;77.06;100253.78;4994156;28;20042;-64
2022/01/16 08:59:12;;;;;;;9.63;4.70;;;;;;;-2.50;77.59;100256.66;4993847;28;20458;-66
2022/01/16 09:01:38;;;;;;;10.07;6.35;;;;;;;-2.53;77.65;100237.75;4993687;28;20089;-67
2022/01/16 09:04:07;;;;;;;7.57;4.30;;;;;;;-2.42;76.70;100248.38;4992712;28;20401;-65
2022/01/16 09:06:43;;;;;;;5.82;3.90;;;;;;;-2.36;77.44;100247.16;4993136;28;20050;-64
2022/01/16 09:09:11;;;;;;;10.40;4.38;;;;;;;-2.23;76.96;100266.34;5009443;28;20034;-65
2022/01/16 09:11:39;;;;;;;7.65;4.07;;;;;;;-2.31;76.91;100232.91;4992751;28;20462;-65
2022/01/16 09:14:05;;;;;;;9.93;4.57;;;;;;;-2.14;76.21;100233.63;4993875;28;20511;-66
2022/01/16 09:16:31;;;;;;;9.77;5.03;;;;;;;-2.20;76.58;100214.00;4993406;28;20116;-64
2022/01/16 09:18:57;;;;;;;6.10;3.73;;;;;;;-2.19;76.92;100224.34;4993894;28;20405;-63
2022/01/16 09:21:23;;;;;;;11.50;4.63;;;;;;;-2.16;76.33;100225.06;4993917;28;20042;-64
2022/01/16 09:23:50;;;;;;;9.57;4.57;;;;;;;-2.31;76.68;100196.41;4994052;28;20490;-65
2022/01/16 09:26:16;;;;;;;8.05;3.92;;;;;;;-2.02;76.35;100232.91;4994316;28;20042;-66
2022/01/16 09:28:42;;;;;;;5.70;3.67;;;;;;;-2.10;76.63;100214.25;4993836;28;20037;-64
2022/01/16 09:31:08;;;;;;;11.88;4.15;;;;;;;-2.06;75.84;100232.22;4993679;28;20132;-65
2022/01/16 09:33:34;;;;;;;5.97;4.07;;;;;;;-2.10;76.86;100190.78;4993911;28;20136;-68
2022/01/16 09:36:01;;;;;;;9.73;4.13;;;;;;;-2.00;76.44;100199.72;4992941;28;20038;-62
2022/01/16 09:38:27;;;;;;;7.05;3.33;;;;;;;-2.01;76.58;100185.81;4993423;28;20265;-62
2022/01/16 09:40:53;;;;;;;8.97;4.30;;;;;;;-1.97;76.82;100195.13;4993562;28;20577;-65
2022/01/16 09:43:43;;;;;;;8.70;3.75;;;;;;;-2.19;76.87;100159.13;4993698;28;20466;-65
2022/01/16 09:46:09;;;;;;;5.87;3.63;;;;;;;-2.00;76.45;100176.22;5008173;28;20038;-66
2022/01/16 09:48:35;;;;;;;6.80;3.80;;;;;;;-2.03;76.24;100165.97;4993256;28;20074;-63
2022/01/16 09:51:01;;;;;;;5.15;3.90;;;;;;;-2.02;76.91;100172.88;4993520;28;20096;-66
2022/01/16 09:53:33;;;;;;;7.13;4.47;;;;;;;-1.99;76.82;100164.84;4977339;28;20014;-63
2022/01/16 09:55:58;;;;;;;6.20;3.70;;;;;;;-1.92;76.73;100161.75;4996943;28;20022;-70
2022/01/16 09:58:24;;;;;;;7.97;4.10;;;;;;;-1.77;76.96;100165.13;4993335;28;20042;-66
2022/01/16 10:00:56;;;;;;;6.50;3.83;;;;;;;-1.85;76.64;100140.47;4994528;28;20030;-67
2022/01/16 10:03:42;;;;;;;4.30;3.90;;;;;;;-1.72;76.15;100147.44;4998061;28;20085;-65
2022/01/16 10:06:17;;;;;;;8.63;5.80;;;;;;;-1.92;77.02;100106.09;4998041;28;20038;-67
2022/01/16 10:08:45;;;;;;;8.77;3.92;;;;;;;-1.68;76.84;100133.22;4994665;28;20440;-70
2022/01/16 10:11:39;;;;;;;7.28;4.00;;;;;;;-1.65;77.01;100126.97;4996969;28;20030;-67
2022/01/16 10:14:46;;;;;;;8.63;4.43;;;;;;;-1.60;76.41;100115.28;4995300;28;20144;-66
2022/01/16 10:17:10;;;;;;;5.63;3.97;;;;;;;-1.59;76.52;100087.41;4995437;28;20039;-67
2022/01/16 10:19:35;;;;;;;5.95;5.35;;;;;;;-1.63;76.32;100065.88;4996965;28;20042;-66
2022/01/16 10:22:12;;;;;;;8.93;4.37;;;;;;;-1.61;77.34;100074.44;4994457;28;20477;-71
2022/01/16 10:24:41;;;;;;;8.55;5.38;;;;;;;-1.62;77.08;100070.16;4994242;28;20088;-71
2022/01/16 10:27:07;;;;;;;6.72;4.32;;;;;;;-1.53;77.31;100083.53;4994180;28;20035;-68
2022/01/16 10:29:40;;;;;;;6.47;4.07;;;;;;;-1.54;77.64;100081.88;4979563;28;20042;-71
2022/01/16 10:32:17;;;;;;;7.05;3.83;;;;;;;-1.53;77.46;100073.09;4996088;28;20494;-67
2022/01/16 10:34:43;;;;;;;7.32;4.15;;;;;;;-1.67;77.32;100029.66;4996149;28;20069;-67
2022/01/16 10:37:30;;;;;;;6.70;4.60;;;;;;;-1.40;77.43;100064.34;4996377;28;20477;-66
2022/01/16 10:40:06;;;;;;;9.65;6.13;;;;;;;-1.39;77.31;100060.78;4993128;28;20564;-65
2022/01/16 10:42:33;;;;;;;9.03;5.10;;;;;;;-1.31;76.95;100058.50;4992698;28;20038;-67
2022/01/16 10:45:07;;;;;;;6.47;4.73;;;;;;;-1.37;77.38;100045.00;4992721;28;20343;-68
2022/01/16 10:47:34;;;;;;;10.77;5.40;;;;;;;-1.29;77.38;100045.31;4992598;28;20273;-64
2022/01/16 10:50:14;;;;;;;9.57;4.50;;;;;;;-1.30;77.18;100027.97;4992626;28;20402;-66
2022/01/16 10:52:45;;;;;;;5.97;4.33;;;;;;;-1.26;77.33;100024.22;4991323;28;20293;-67
2022/01/16 10:55:11;;;;;;;8.07;5.53;;;;;;;-1.26;77.75;100026.81;4993257;28;20272;-67
2022/01/16 10:57:37;;;;;;;8.97;5.00;;;;;;;-1.31;77.79;100010.63;4992998;28;20273;-71
2022/01/16 11:00:07;;;;;;;11.03;5.13;;;;;;;-1.22;77.28;100020.44;4992940;28;20117;-70
2022/01/16 11:02:35;;;;;;;5.80;4.87;;;;;;;-1.33;77.47;99996.84;4992009;28;20517;-74
2022/01/16 11:05:05;;;;;;;;;;;;;;;-1.16;77.70;100009.56;4993112;28;20274;-71
2022/01/16 11:07:31;;;;;;;10.00;5.10;;;;;;;-1.26;77.64;99985.03;4992805;28;20444;-70
2022/01/16 11:09:56;;;;;;;8.13;4.57;;;;;;;-1.15;77.21;99999.97;4993036;28;20265;-70
2022/01/16 11:12:22;;;;;;;6.87;4.73;;;;;;;-1.14;77.27;99992.03;4992452;28;20046;-69
2022/01/16 11:14:48;;;;;;;6.50;4.73;;;;;;;-1.01;77.69;99998.06;4975149;28;20129;-66
2022/01/16 11:17:14;;;;;;;6.53;4.70;;;;;;;-0.95;77.02;99995.00;4992450;28;20046;-67
2022/01/16 11:19:39;;;;;;;12.67;5.87;;;;;;;-0.91;77.01;99990.38;4991487;28;20270;-67
2022/01/16 11:22:10;;;;;;;7.50;4.63;;;;;;;-1.07;76.91;99977.59;4993141;28;20065;-66
2022/01/16 11:24:59;;;;;;;15.03;5.27;;;;;;;-1.04;77.18;99982.59;4993082;28;20117;-67
2022/01/16 11:27:26;;;;;;;9.23;4.43;;;;;;;-1.08;77.34;99962.84;4992279;28;20795;-70
2022/01/16 11:29:51;;;;;;;8.80;5.13;;;;;;;-1.05;77.23;99953.97;4992653;28;20816;-71
2022/01/16 11:32:18;;;;;;;9.37;6.20;;;;;;;-1.07;77.72;99948.84;4991120;28;20285;-69
2022/01/16 11:34:44;;;;;;;5.40;4.60;;;;;;;-1.47;77.17;99875.03;4992748;28;20034;-70
2022/01/16 11:37:10;;;;;;;7.47;4.83;;;;;;;-0.97;77.15;99952.47;4994899;28;20764;-68
2022/01/16 11:39:37;;;;;;;8.00;4.37;;;;;;;-0.98;77.77;99940.34;4996001;28;20262;-68
2022/01/16 11:42:04;;;;;;;12.07;5.03;;;;;;;-0.94;77.49;99926.09;4994611;28;20125;-71
2022/01/16 11:44:32;;;;;;;7.90;5.53;;;;;;;-0.80;77.50;99947.81;4995159;28;20273;-71
2022/01/16 11:47:01;;;;;;;9.32;4.78;;;;;;;-0.88;76.91;99923.97;4996050;28;20281;-69
2022/01/16 11:49:42;;;;;;;6.10;5.30;;;;;;;-0.76;76.73;99934.41;4995119;28;20516;-69
2022/01/16 11:52:16;;;;;;;8.63;5.80;;;;;;;-0.75;77.08;99916.94;5011194;28;20294;-70
2022/01/16 11:54:49;;;;;;;8.67;5.30;;;;;;;-0.79;76.98;99915.50;4994687;28;20273;-69
2022/01/16 11:57:29;;;;;;;11.17;6.20;;;;;;;-0.72;76.64;99908.88;4996409;28;20308;-70
2022/01/16 12:00:09;;;;;;;13.20;6.07;;;;;;;-0.77;76.37;99897.91;4996230;28;20594;-67
2022/01/16 12:02:40;;;;;;;10.83;6.30;;;;;;;-0.75;77.00;99898.63;4995677;28;20285;-66
2022/01/16 12:05:08;;;;;;;10.63;5.53;;;;;;;-0.85;76.71;99895.88;4995587;28;20630;-68
2022/01/16 12:07:33;;;;;;;9.23;5.27;;;;;;;-0.78;76.39;99909.31;4993971;28;20292;-67
2022/01/16 12:09:59;;;;;;;8.50;5.53;;;;;;;-0.75;75.96;99903.88;4995810;28;20319;-68